createdAt,value
2018-04-16T00:03:21.852Z,18.97
2018-04-16T00:08:12.727Z,20.67
2018-04-16T00:13:03.617Z,21.10
2018-04-16T00:17:55.255Z,20.30
2018-04-16T00:22:46.136Z,23.67
2018-04-16T00:27:37.034Z,20.80
2018-04-16T00:32:33.982Z,21.30
2018-04-16T00:37:31.179Z,21.57
2018-04-16T00:42:28.266Z,21.03
2018-04-16T00:47:25.385Z,23.73
2018-04-16T00:52:22.415Z,21.30
2018-04-16T00:57:19.579Z,22.33
2018-04-16T01:02:16.661Z,24.17
2018-04-16T01:07:14.792Z,22.80
2018-04-16T01:12:12.574Z,22.70
2018-04-16T01:17:09.631Z,23.83
2018-04-16T01:22:07.503Z,23.13
2018-04-16T01:27:04.470Z,30.90
2018-04-16T01:32:02.376Z,24.73
2018-04-16T01:36:59.475Z,24.10
2018-04-16T01:41:56.593Z,28.37
2018-04-16T01:46:53.620Z,27.13
2018-04-16T01:51:50.752Z,27.17
2018-04-16T01:56:47.880Z,24.97
2018-04-16T02:01:45.111Z,24.70
2018-04-16T02:06:42.218Z,32.60
2018-04-16T02:11:39.357Z,32.60
2018-04-16T02:16:36.380Z,32.93
2018-04-16T02:21:33.428Z,29.47
2018-04-16T02:26:37.625Z,32.10
2018-04-16T02:31:34.630Z,28.10
2018-04-16T02:36:31.628Z,30.83
2018-04-16T02:41:29.460Z,28.13
2018-04-16T02:46:26.631Z,28.17
2018-04-16T02:51:23.713Z,29.60
2018-04-16T02:56:20.937Z,27.60
2018-04-16T03:01:30.707Z,31.37
2018-04-16T03:06:28.488Z,31.27
2018-04-16T03:11:25.630Z,32.73
2018-04-16T03:16:22.824Z,25.57
2018-04-16T03:21:19.936Z,28.60
2018-04-16T03:31:35.576Z,27.97
2018-04-16T03:36:32.651Z,28.37
2018-04-16T03:41:29.697Z,25.13
2018-04-16T03:46:27.039Z,30.00
2018-04-16T03:51:34.804Z,24.83
2018-04-16T03:56:25.713Z,33.73
2018-04-16T04:01:16.642Z,27.43
2018-04-16T04:06:07.516Z,23.00
2018-04-16T04:10:59.164Z,27.77
2018-04-16T04:15:51.543Z,28.97
2018-04-16T04:20:42.455Z,26.90
2018-04-16T04:25:45.859Z,29.90
2018-04-16T04:30:38.609Z,25.13
2018-04-16T04:35:30.264Z,27.57
2018-04-16T04:40:21.155Z,26.83
2018-04-16T04:45:12.084Z,27.67
2018-04-16T04:50:02.976Z,29.20
2018-04-16T04:54:54.627Z,28.47
2018-04-16T04:59:45.542Z,27.50
2018-04-16T05:04:37.185Z,28.33
2018-04-16T05:09:28.093Z,30.23
2018-04-16T05:14:18.988Z,29.30
2018-04-16T05:19:10.623Z,30.03
2018-04-16T05:24:02.265Z,38.27
2018-04-16T05:28:53.900Z,31.60
2018-04-16T05:33:44.787Z,36.80
2018-04-16T05:38:35.680Z,37.03
2018-04-16T05:43:26.573Z,38.10
2018-04-16T05:48:17.467Z,31.00
2018-04-16T05:53:08.359Z,37.70
2018-04-16T05:57:59.265Z,30.30
2018-04-16T06:02:50.955Z,38.40
2018-04-16T06:07:41.852Z,38.80
2018-04-16T06:12:32.759Z,31.93
2018-04-16T06:17:23.648Z,42.33
2018-04-16T06:22:14.548Z,27.60
2018-04-16T06:27:05.448Z,37.07
2018-04-16T06:31:56.416Z,31.30
2018-04-16T06:36:47.312Z,27.53
2018-04-16T06:41:38.216Z,36.57
2018-04-16T06:46:29.858Z,29.93
2018-04-16T06:51:20.764Z,34.57
2018-04-16T06:56:11.728Z,29.70
2018-04-16T07:01:02.656Z,32.40
2018-04-16T07:05:53.568Z,28.73
2018-04-16T07:10:44.467Z,33.00
2018-04-16T07:15:36.192Z,27.23
2018-04-16T07:20:27.097Z,29.97
2018-04-16T07:25:18.000Z,29.53
2018-04-16T07:30:08.905Z,30.40
2018-04-16T07:34:59.805Z,26.50
2018-04-16T07:39:50.889Z,33.73
2018-04-16T07:44:41.791Z,30.10
2018-04-16T07:49:33.427Z,30.90
2018-04-16T07:54:25.082Z,27.73
2018-04-16T07:59:16.711Z,25.43
2018-04-16T08:04:07.615Z,29.73
2018-04-16T08:08:58.503Z,28.93
2018-04-16T08:13:49.407Z,30.00
2018-04-16T08:18:41.043Z,26.93
2018-04-16T08:23:31.950Z,27.30
2018-04-16T08:28:22.851Z,28.07
2018-04-16T08:33:13.767Z,31.10
2018-04-16T08:38:05.388Z,27.10
2018-04-16T08:42:56.286Z,27.30
2018-04-16T08:47:47.184Z,26.67
2018-04-16T08:52:38.098Z,30.90
2018-04-16T08:57:29.732Z,25.20
2018-04-16T09:02:21.371Z,28.00
2018-04-16T09:07:20.055Z,24.13
2018-04-16T09:12:10.951Z,28.70
2018-04-16T09:17:01.839Z,28.87
2018-04-16T09:21:53.459Z,23.90
2018-04-16T09:26:44.355Z,23.57
2018-04-16T09:31:35.260Z,26.57
2018-04-16T09:36:26.891Z,23.23
2018-04-16T09:41:18.515Z,21.70
2018-04-16T09:46:09.418Z,25.10
2018-04-16T09:51:00.326Z,24.70
2018-04-16T09:55:51.274Z,24.90
2018-04-16T10:00:48.348Z,21.60
2018-04-16T10:05:39.236Z,23.73
2018-04-16T10:10:30.182Z,22.50
2018-04-16T10:15:21.884Z,19.33
2018-04-16T10:20:12.793Z,23.60
2018-04-16T10:25:03.696Z,20.30
2018-04-16T10:29:55.332Z,19.80
2018-04-16T10:34:46.977Z,20.03
2018-04-16T10:39:38.611Z,21.50
2018-04-16T10:44:29.541Z,21.83
2018-04-16T10:49:20.435Z,18.17
2018-04-16T10:54:11.319Z,23.20
2018-04-16T10:59:02.233Z,21.40
2018-04-16T11:03:53.131Z,23.07
2018-04-16T11:08:44.024Z,21.37
2018-04-16T11:13:34.934Z,20.20
2018-04-16T11:18:26.571Z,20.40
2018-04-16T11:23:18.211Z,19.33
2018-04-16T11:28:09.122Z,18.07
2018-04-16T11:33:00.020Z,19.23
2018-04-16T11:37:50.940Z,17.47
2018-04-16T11:42:41.845Z,17.37
2018-04-16T11:47:32.732Z,17.13
2018-04-16T11:52:23.730Z,15.73
2018-04-16T11:57:14.619Z,15.50
2018-04-16T12:02:06.263Z,15.27
2018-04-16T12:06:57.967Z,19.37
2018-04-16T12:11:48.864Z,19.33
2018-04-16T12:16:40.556Z,21.63
2018-04-16T12:21:32.154Z,23.40
2018-04-16T12:26:23.062Z,23.53
2018-04-16T12:31:21.099Z,24.73
2018-04-16T12:36:11.992Z,21.87
2018-04-16T12:41:02.882Z,21.93
2018-04-16T12:45:53.779Z,20.57
2018-04-16T12:50:44.671Z,16.77
2018-04-16T12:55:35.643Z,22.37
2018-04-16T13:00:26.539Z,21.23
2018-04-16T13:05:17.431Z,24.30
2018-04-16T13:10:08.327Z,27.87
2018-04-16T13:14:59.226Z,29.70
2018-04-16T13:19:50.863Z,29.90
2018-04-16T13:24:41.764Z,34.83
2018-04-16T13:29:32.676Z,32.33
2018-04-16T13:34:23.578Z,38.83
2018-04-16T13:39:15.215Z,41.37
2018-04-16T13:44:06.919Z,41.17
2018-04-16T13:48:57.823Z,41.67
2018-04-16T13:53:48.711Z,44.80
2018-04-16T13:58:39.614Z,42.37
2018-04-16T14:03:30.515Z,40.03
2018-04-16T14:08:22.171Z,46.20
2018-04-16T14:13:13.076Z,47.83
2018-04-16T14:18:03.968Z,45.37
2018-04-16T14:22:54.860Z,44.97
2018-04-16T14:27:45.762Z,46.97
2018-04-16T14:32:36.669Z,47.00
2018-04-16T14:37:27.563Z,44.37
2018-04-16T14:42:19.412Z,49.77
2018-04-16T14:47:10.303Z,50.10
2018-04-16T14:52:01.195Z,50.93
2018-04-16T14:56:52.826Z,48.20
2018-04-16T15:01:44.459Z,52.37
2018-04-16T15:06:35.347Z,49.63
2018-04-16T15:11:26.239Z,49.40
2018-04-16T15:16:17.874Z,49.90
2018-04-16T15:21:08.773Z,52.90
2018-04-16T15:25:59.667Z,48.20
2018-04-16T15:30:51.307Z,47.80
2018-04-16T15:35:42.231Z,51.77
2018-04-16T15:40:33.123Z,46.70
2018-04-16T15:45:24.025Z,47.63
2018-04-16T15:50:14.925Z,43.37
2018-04-16T15:55:06.567Z,43.67
2018-04-16T15:59:57.467Z,46.70
2018-04-16T16:04:48.365Z,46.33
2018-04-16T16:09:40.015Z,45.17
2018-04-16T16:14:31.656Z,46.30
2018-04-16T16:19:22.547Z,47.63
2018-04-16T16:24:13.439Z,45.10
2018-04-16T16:29:04.344Z,45.50
2018-04-16T16:33:55.223Z,42.40
2018-04-16T16:38:46.855Z,47.57
2018-04-16T16:43:37.735Z,39.27
2018-04-16T16:48:28.627Z,45.60
2018-04-16T16:53:19.525Z,38.90
2018-04-16T16:58:10.437Z,38.30
2018-04-16T17:03:01.331Z,37.70
2018-04-16T17:07:52.974Z,39.23
2018-04-16T17:12:44.616Z,41.40
2018-04-16T17:17:36.243Z,36.93
2018-04-16T17:22:27.889Z,39.13
2018-04-16T17:27:18.783Z,37.47
2018-04-16T17:32:09.691Z,32.90
2018-04-16T17:37:00.580Z,36.17
2018-04-16T17:41:51.491Z,32.10
2018-04-16T17:46:42.402Z,31.20
2018-04-16T17:51:33.310Z,31.23
2018-04-16T17:56:24.199Z,32.53
2018-04-16T18:01:15.115Z,29.47
2018-04-16T18:06:06.012Z,32.20
2018-04-16T18:10:57.021Z,31.33
2018-04-16T18:15:48.843Z,28.80
2018-04-16T18:20:39.740Z,31.63
2018-04-16T18:25:30.659Z,29.33
2018-04-16T18:30:21.547Z,29.17
2018-04-16T18:35:12.455Z,34.70
2018-04-16T18:40:03.388Z,31.00
2018-04-16T18:44:54.330Z,27.70
2018-04-16T18:49:45.232Z,30.50
2018-04-16T18:54:36.123Z,27.13
2018-04-16T18:59:27.025Z,28.50
2018-04-16T19:04:17.991Z,31.97
2018-04-16T19:09:09.638Z,41.20
2018-04-16T19:14:00.531Z,39.17
2018-04-16T19:18:51.437Z,35.43
2018-04-16T19:23:42.500Z,36.33
2018-04-16T19:28:33.402Z,36.77
2018-04-16T19:33:30.393Z,36.47
2018-04-16T19:38:21.323Z,31.70
2018-04-16T19:43:12.219Z,35.30
2018-04-16T19:48:03.858Z,36.73
2018-04-16T19:52:54.762Z,33.87
2018-04-16T19:57:52.010Z,30.70
2018-04-16T20:02:49.875Z,25.13
2018-04-16T20:07:40.796Z,28.93
2018-04-16T20:12:31.709Z,30.23
2018-04-16T20:17:22.600Z,30.00
2018-04-16T20:22:13.499Z,29.70
2018-04-16T20:27:04.435Z,26.97
2018-04-16T20:31:55.327Z,28.47
2018-04-16T20:36:46.992Z,29.97
2018-04-16T20:41:37.879Z,29.27
2018-04-16T20:46:28.785Z,26.90
2018-04-16T20:51:19.683Z,26.87
2018-04-16T20:56:10.580Z,26.10
2018-04-16T21:01:01.467Z,26.50
2018-04-16T21:05:52.378Z,28.10
2018-04-16T21:10:43.297Z,25.90
2018-04-16T21:15:34.199Z,23.67
2018-04-16T21:20:25.835Z,24.40
2018-04-16T21:25:16.752Z,23.87
2018-04-16T21:30:07.647Z,22.70
2018-04-16T21:34:58.554Z,22.03
2018-04-16T21:39:50.195Z,23.83
2018-04-16T21:44:41.845Z,25.40
2018-04-16T21:49:32.741Z,24.37
2018-04-16T21:54:23.639Z,21.23
2018-04-16T21:59:15.289Z,25.60
2018-04-16T22:04:06.940Z,27.87
2018-04-16T22:08:58.589Z,29.80
2018-04-16T22:13:50.223Z,22.10
2018-04-16T22:18:41.131Z,24.33
2018-04-16T22:23:32.036Z,28.90
2018-04-16T22:28:22.940Z,25.40
2018-04-16T22:33:13.836Z,28.43
2018-04-16T22:38:04.743Z,25.13
2018-04-16T22:42:55.643Z,24.33
2018-04-16T22:47:46.543Z,25.90
2018-04-16T22:52:37.440Z,27.97
2018-04-16T22:57:28.331Z,23.13
2018-04-16T23:02:19.267Z,26.20
2018-04-16T23:07:10.164Z,30.07
2018-04-16T23:12:01.067Z,28.63
2018-04-16T23:16:51.977Z,27.37
2018-04-16T23:21:42.887Z,28.47
2018-04-16T23:26:33.797Z,29.10
2018-04-16T23:31:24.711Z,28.30
2018-04-16T23:36:22.756Z,28.57
2018-04-16T23:41:14.414Z,27.90
2018-04-16T23:46:05.315Z,27.33
2018-04-16T23:50:56.970Z,29.17
2018-04-16T23:55:47.881Z,28.00
